sensor_id;sensor_type;location;lat;lon;timestamp;pressure;altitude;pressure_sealevel;temperature;humidity
55687;BME280;41911;52.362;4.978;2023-05-03T00:00:04;103017.84;;;10.18;35.51
55687;BME280;41911;52.362;4.978;2023-05-03T00:00:35;103015.65;;;10.50;35.65
55687;BME280;41911;52.362;4.978;2023-05-03T00:01:07;103014.26;;;10.29;35.15
55687;BME280;41911;52.362;4.978;2023-05-03T00:01:38;103014.16;;;10.19;35.65
55687;BME280;41911;52.362;4.978;2023-05-03T00:02:09;103015.52;;;10.59;35.64
55687;BME280;41911;52.362;4.978;2023-05-03T00:02:40;103013.46;;;10.16;34.82
55687;BME280;41911;52.362;4.978;2023-05-03T00:03:11;103012.17;;;10.03;35.28
55687;BME280;41911;52.362;4.978;2023-05-03T00:03:42;103013.58;;;10.32;34.96
55687;BME280;41911;52.362;4.978;2023-05-03T00:04:14;103013.42;;;10.29;35.53
55687;BME280;41911;52.362;4.978;2023-05-03T00:04:45;103015.37;;;9.96;35.20
55687;BME280;41911;52.362;4.978;2023-05-03T00:05:16;103016.44;;;10.12;34.55
55687;BME280;41911;52.362;4.978;2023-05-03T00:05:47;103015.62;;;9.79;34.29
55687;BME280;41911;52.362;4.978;2023-05-03T00:06:18;103015.37;;;9.38;34.92
55687;BME280;41911;52.362;4.978;2023-05-03T00:06:49;103018.30;;;9.78;34.45
55687;BME280;41911;52.362;4.978;2023-05-03T00:07:20;103016.25;;;10.14;34.48
55687;BME280;41911;52.362;4.978;2023-05-03T00:07:51;103017.57;;;10.01;34.93
55687;BME280;41911;52.362;4.978;2023-05-03T00:08:22;103018.85;;;9.92;34.64
55687;BME280;41911;52.362;4.978;2023-05-03T00:08:53;103016.58;;;10.24;34.50
55687;BME280;41911;52.362;4.978;2023-05-03T00:09:24;103018.89;;;10.12;34.87
55687;BME280;41911;52.362;4.978;2023-05-03T00:09:54;103017.71;;;10.17;35.37
55687;BME280;41911;52.362;4.978;2023-05-03T00:10:25;103018.30;;;10.18;35.21
55687;BME280;41911;52.362;4.978;2023-05-03T00:10:58;103018.98;;;10.05;34.44
55687;BME280;41911;52.362;4.978;2023-05-03T00:11:29;103020.50;;;9.51;35.03
55687;BME280;41911;52.362;4.978;2023-05-03T00:12:00;103021.67;;;9.93;35.04
55687;BME280;41911;52.362;4.978;2023-05-03T00:12:32;103022.83;;;9.59;34.65
55687;BME280;41911;52.362;4.978;2023-05-03T00:13:02;103024.86;;;9.93;35.38
55687;BME280;41911;52.362;4.978;2023-05-03T00:13:34;103024.10;;;10.00;35.83
55687;BME280;41911;52.362;4.978;2023-05-03T00:14:05;103022.37;;;10.32;35.69
55687;BME280;41911;52.362;4.978;2023-05-03T00:14:36;103025.70;;;10.08;35.79
55687;BME280;41911;52.362;4.978;2023-05-03T00:15:08;103024.54;;;9.81;35.94
55687;BME280;41911;52.362;4.978;2023-05-03T00:15:39;103023.96;;;10.06;36.23
55687;BME280;41911;52.362;4.978;2023-05-03T00:16:10;103022.90;;;9.83;35.84
55687;BME280;41911;52.362;4.978;2023-05-03T00:16:40;103027.24;;;10.18;35.38
55687;BME280;41911;52.362;4.978;2023-05-03T00:17:12;103024.70;;;9.91;36.01
55687;BME280;41911;52.362;4.978;2023-05-03T00:17:43;103024.25;;;9.94;35.04
55687;BME280;41911;52.362;4.978;2023-05-03T00:18:14;103025.50;;;10.04;34.55
55687;BME280;41911;52.362;4.978;2023-05-03T00:18:45;103023.53;;;9.90;35.29
55687;BME280;41911;52.362;4.978;2023-05-03T00:19:16;103025.09;;;10.25;34.79
55687;BME280;41911;52.362;4.978;2023-05-03T00:19:51;103025.75;;;10.16;35.53
55687;BME280;41911;52.362;4.978;2023-05-03T00:20:22;103023.71;;;10.09;35.89
55687;BME280;41911;52.362;4.978;2023-05-03T00:20:53;103023.02;;;9.77;34.70
55687;BME280;41911;52.362;4.978;2023-05-03T00:21:24;103021.85;;;9.86;34.90
55687;BME280;41911;52.362;4.978;2023-05-03T00:21:55;103024.30;;;9.83;34.89
55687;BME280;41911;52.362;4.978;2023-05-03T00:22:26;103024.25;;;9.83;35.44
55687;BME280;41911;52.362;4.978;2023-05-03T00:22:57;103023.29;;;10.18;35.46
55687;BME280;41911;52.362;4.978;2023-05-03T00:23:28;103023.28;;;9.80;34.38
55687;BME280;41911;52.362;4.978;2023-05-03T00:23:59;103021.58;;;9.79;34.96
55687;BME280;41911;52.362;4.978;2023-05-03T00:24:30;103019.73;;;9.85;34.85
55687;BME280;41911;52.362;4.978;2023-05-03T00:25:01;103020.60;;;9.74;35.10
55687;BME280;41911;52.362;4.978;2023-05-03T00:25:32;103019.50;;;9.75;34.54
55687;BME280;41911;52.362;4.978;2023-05-03T00:26:03;103020.57;;;10.02;34.98
55687;BME280;41911;52.362;4.978;2023-05-03T00:26:34;103018.05;;;9.89;35.54
55687;BME280;41911;52.362;4.978;2023-05-03T00:27:05;103017.93;;;10.11;35.96
55687;BME280;41911;52.362;4.978;2023-05-03T00:27:36;103014.15;;;10.44;33.61
55687;BME280;41911;52.362;4.978;2023-05-03T00:28:07;103015.79;;;9.84;34.56
55687;BME280;41911;52.362;4.978;2023-05-03T00:28:38;103015.90;;;10.07;34.63
55687;BME280;41911;52.362;4.978;2023-05-03T00:29:08;103014.31;;;10.03;34.93
55687;BME280;41911;52.362;4.978;2023-05-03T00:29:39;103014.34;;;10.28;34.88
55687;BME280;41911;52.362;4.978;2023-05-03T00:30:11;103011.54;;;9.69;35.32
55687;BME280;41911;52.362;4.978;2023-05-03T00:30:42;103010.04;;;9.98;35.12
55687;BME280;41911;52.362;4.978;2023-05-03T00:31:13;103007.30;;;9.81;34.88
55687;BME280;41911;52.362;4.978;2023-05-03T00:31:44;103009.92;;;9.93;35.39
55687;BME280;41911;52.362;4.978;2023-05-03T00:32:15;103008.26;;;10.30;35.78
55687;BME280;41911;52.362;4.978;2023-05-03T00:32:46;103007.93;;;9.71;35.41
55687;BME280;41911;52.362;4.978;2023-05-03T00:33:17;103009.76;;;10.06;35.57
55687;BME280;41911;52.362;4.978;2023-05-03T00:33:48;103007.58;;;9.62;35.74
55687;BME280;41911;52.362;4.978;2023-05-03T00:34:19;103008.28;;;9.70;35.14
55687;BME280;41911;52.362;4.978;2023-05-03T00:34:52;103011.02;;;10.29;35.03
55687;BME280;41911;52.362;4.978;2023-05-03T00:35:23;103011.63;;;9.62;34.98
55687;BME280;41911;52.362;4.978;2023-05-03T00:35:53;103011.24;;;9.62;34.87
55687;BME280;41911;52.362;4.978;2023-05-03T00:36:24;103010.02;;;9.84;34.13
55687;BME280;41911;52.362;4.978;2023-05-03T00:36:55;103012.88;;;10.24;34.78
55687;BME280;41911;52.362;4.978;2023-05-03T00:37:26;103016.41;;;9.71;34.22
55687;BME280;41911;52.362;4.978;2023-05-03T00:37:57;103014.14;;;10.03;34.87
55687;BME280;41911;52.362;4.978;2023-05-03T00:38:28;103015.54;;;9.68;34.84
55687;BME280;41911;52.362;4.978;2023-05-03T00:38:59;103015.46;;;9.68;35.11
55687;BME280;41911;52.362;4.978;2023-05-03T00:39:30;103015.49;;;9.81;34.68
55687;BME280;41911;52.362;4.978;2023-05-03T00:40:01;103015.84;;;9.48;34.87
55687;BME280;41911;52.362;4.978;2023-05-03T00:40:32;103018.29;;;9.90;34.99
55687;BME280;41911;52.362;4.978;2023-05-03T00:41:09;103015.79;;;9.83;35.93
55687;BME280;41911;52.362;4.978;2023-05-03T00:41:40;103020.68;;;9.68;35.57
55687;BME280;41911;52.362;4.978;2023-05-03T00:42:11;103016.02;;;9.70;34.80
55687;BME280;41911;52.362;4.978;2023-05-03T00:42:42;103017.12;;;9.60;35.58
55687;BME280;41911;52.362;4.978;2023-05-03T00:43:13;103017.47;;;9.65;35.46
55687;BME280;41911;52.362;4.978;2023-05-03T00:43:44;103016.89;;;9.81;36.27
55687;BME280;41911;52.362;4.978;2023-05-03T00:44:15;103017.62;;;9.81;35.64
55687;BME280;41911;52.362;4.978;2023-05-03T00:44:46;103015.96;;;9.74;36.05
55687;BME280;41911;52.362;4.978;2023-05-03T00:45:17;103016.10;;;9.79;35.67
55687;BME280;41911;52.362;4.978;2023-05-03T00:45:48;103018.25;;;9.87;35.86
55687;BME280;41911;52.362;4.978;2023-05-03T00:46:19;103013.38;;;9.95;35.69
55687;BME280;41911;52.362;4.978;2023-05-03T00:46:50;103015.23;;;9.22;34.84
55687;BME280;41911;52.362;4.978;2023-05-03T00:47:21;103011.74;;;9.72;35.47
55687;BME280;41911;52.362;4.978;2023-05-03T00:47:52;103015.00;;;9.80;35.16
55687;BME280;41911;52.362;4.978;2023-05-03T00:48:24;103014.26;;;9.85;35.13
55687;BME280;41911;52.362;4.978;2023-05-03T00:48:55;103013.43;;;9.56;35.35
55687;BME280;41911;52.362;4.978;2023-05-03T00:49:26;103013.57;;;9.57;35.58
55687;BME280;41911;52.362;4.978;2023-05-03T00:49:59;103016.67;;;9.72;35.07
55687;BME280;41911;52.362;4.978;2023-05-03T00:50:30;103016.52;;;9.68;35.63
55687;BME280;41911;52.362;4.978;2023-05-03T00:51:01;103016.23;;;9.71;35.15
55687;BME280;41911;52.362;4.978;2023-05-03T00:51:33;103011.87;;;9.35;34.79
55687;BME280;41911;52.362;4.978;2023-05-03T00:52:05;103015.06;;;9.35;35.54
55687;BME280;41911;52.362;4.978;2023-05-03T00:52:36;103015.78;;;9.79;35.59
55687;BME280;41911;52.362;4.978;2023-05-03T00:53:07;103015.94;;;9.87;35.83
55687;BME280;41911;52.362;4.978;2023-05-03T00:53:38;103016.74;;;9.83;34.80
55687;BME280;41911;52.362;4.978;2023-05-03T00:54:10;103018.21;;;9.54;34.94
55687;BME280;41911;52.362;4.978;2023-05-03T00:54:41;103017.87;;;9.82;35.79
55687;BME280;41911;52.362;4.978;2023-05-03T00:55:13;103019.40;;;9.79;35.56
55687;BME280;41911;52.362;4.978;2023-05-03T00:55:45;103018.16;;;9.88;35.75
55687;BME280;41911;52.362;4.978;2023-05-03T00:56:18;103018.96;;;9.56;35.51
55687;BME280;41911;52.362;4.978;2023-05-03T00:56:49;103017.96;;;9.49;35.12
55687;BME280;41911;52.362;4.978;2023-05-03T00:57:20;103018.57;;;9.62;35.49
55687;BME280;41911;52.362;4.978;2023-05-03T00:57:51;103018.02;;;9.96;35.02
55687;BME280;41911;52.362;4.978;2023-05-03T00:58:22;103017.21;;;9.90;35.63
55687;BME280;41911;52.362;4.978;2023-05-03T00:58:54;103019.65;;;9.96;35.86
55687;BME280;41911;52.362;4.978;2023-05-03T00:59:25;103016.28;;;9.98;35.54
55687;BME280;41911;52.362;4.978;2023-05-03T00:59:56;103018.90;;;9.70;34.56
55687;BME280;41911;52.362;4.978;2023-05-03T01:00:27;103019.76;;;9.34;35.76
55687;BME280;41911;52.362;4.978;2023-05-03T01:00:59;103019.51;;;9.59;35.22
55687;BME280;41911;52.362;4.978;2023-05-03T01:01:30;103020.35;;;9.68;35.12
55687;BME280;41911;52.362;4.978;2023-05-03T01:02:01;103020.29;;;9.54;35.27
55687;BME280;41911;52.362;4.978;2023-05-03T01:02:32;103020.98;;;9.62;35.18
55687;BME280;41911;52.362;4.978;2023-05-03T01:03:03;103021.73;;;9.44;35.23
55687;BME280;41911;52.362;4.978;2023-05-03T01:03:35;103021.95;;;9.87;35.44
55687;BME280;41911;52.362;4.978;2023-05-03T01:04:06;103022.34;;;9.96;35.19
55687;BME280;41911;52.362;4.978;2023-05-03T01:04:37;103021.97;;;9.99;35.23
55687;BME280;41911;52.362;4.978;2023-05-03T01:05:08;103021.79;;;10.01;35.93
55687;BME280;41911;52.362;4.978;2023-05-03T01:05:47;103021.93;;;9.66;35.63
55687;BME280;41911;52.362;4.978;2023-05-03T01:06:28;103025.31;;;9.69;35.45
55687;BME280;41911;52.362;4.978;2023-05-03T01:07:10;103023.86;;;9.70;35.78
55687;BME280;41911;52.362;4.978;2023-05-03T01:07:55;103021.40;;;9.99;35.90
55687;BME280;41911;52.362;4.978;2023-05-03T01:08:32;103021.00;;;9.54;34.75
55687;BME280;41911;52.362;4.978;2023-05-03T01:09:10;103018.78;;;9.68;34.95
55687;BME280;41911;52.362;4.978;2023-05-03T01:09:48;103018.60;;;9.87;35.21
55687;BME280;41911;52.362;4.978;2023-05-03T01:10:31;103016.15;;;10.16;35.42
55687;BME280;41911;52.362;4.978;2023-05-03T01:11:09;103014.74;;;9.86;35.00
55687;BME280;41911;52.362;4.978;2023-05-03T01:11:48;103013.77;;;9.78;35.05
55687;BME280;41911;52.362;4.978;2023-05-03T01:12:30;103015.99;;;10.33;34.83
55687;BME280;41911;52.362;4.978;2023-05-03T01:13:08;103014.59;;;10.16;34.95
55687;BME280;41911;52.362;4.978;2023-05-03T01:13:51;103015.53;;;9.91;35.05
55687;BME280;41911;52.362;4.978;2023-05-03T01:14:30;103015.94;;;9.68;34.19
55687;BME280;41911;52.362;4.978;2023-05-03T01:15:07;103015.62;;;9.82;34.60
55687;BME280;41911;52.362;4.978;2023-05-03T01:15:56;103017.73;;;10.07;33.76
55687;BME280;41911;52.362;4.978;2023-05-03T01:16:35;103022.03;;;9.73;34.81
55687;BME280;41911;52.362;4.978;2023-05-03T01:17:11;103021.70;;;9.83;34.94
55687;BME280;41911;52.362;4.978;2023-05-03T01:17:49;103023.26;;;9.61;35.23
55687;BME280;41911;52.362;4.978;2023-05-03T01:18:25;103022.77;;;9.67;35.64
55687;BME280;41911;52.362;4.978;2023-05-03T01:19:02;103022.89;;;9.96;36.03
55687;BME280;41911;52.362;4.978;2023-05-03T01:19:36;103022.71;;;9.81;35.53
55687;BME280;41911;52.362;4.978;2023-05-03T01:20:09;103021.77;;;9.51;34.56
55687;BME280;41911;52.362;4.978;2023-05-03T01:20:47;103021.76;;;10.20;34.29
55687;BME280;41911;52.362;4.978;2023-05-03T01:21:20;103019.09;;;9.68;34.75
55687;BME280;41911;52.362;4.978;2023-05-03T01:21:57;103017.82;;;9.81;35.17
55687;BME280;41911;52.362;4.978;2023-05-03T01:22:37;103020.34;;;10.13;35.32
55687;BME280;41911;52.362;4.978;2023-05-03T01:23:24;103021.83;;;9.94;35.45
55687;BME280;41911;52.362;4.978;2023-05-03T01:24:03;103024.12;;;9.67;35.41
55687;BME280;41911;52.362;4.978;2023-05-03T01:24:39;103021.57;;;9.77;35.07
55687;BME280;41911;52.362;4.978;2023-05-03T01:25:12;103023.76;;;10.00;35.46
55687;BME280;41911;52.362;4.978;2023-05-03T01:25:43;103023.10;;;9.84;35.00
55687;BME280;41911;52.362;4.978;2023-05-03T01:26:18;103023.17;;;10.13;35.23
55687;BME280;41911;52.362;4.978;2023-05-03T01:26:49;103022.60;;;10.08;34.94
55687;BME280;41911;52.362;4.978;2023-05-03T01:27:20;103020.29;;;10.04;35.43
55687;BME280;41911;52.362;4.978;2023-05-03T01:27:51;103019.14;;;10.14;35.38
55687;BME280;41911;52.362;4.978;2023-05-03T01:28:22;103020.93;;;10.15;35.58
55687;BME280;41911;52.362;4.978;2023-05-03T01:28:54;103018.28;;;10.01;35.25
55687;BME280;41911;52.362;4.978;2023-05-03T01:29:25;103016.91;;;9.86;34.74
55687;BME280;41911;52.362;4.978;2023-05-03T01:29:56;103014.29;;;9.92;34.74
55687;BME280;41911;52.362;4.978;2023-05-03T01:30:29;103015.12;;;9.93;34.80
55687;BME280;41911;52.362;4.978;2023-05-03T01:31:01;103013.90;;;10.13;34.83
55687;BME280;41911;52.362;4.978;2023-05-03T01:31:33;103013.36;;;9.83;34.61
55687;BME280;41911;52.362;4.978;2023-05-03T01:32:13;103012.50;;;9.79;35.54
55687;BME280;41911;52.362;4.978;2023-05-03T01:33:04;103010.57;;;9.44;34.72
55687;BME280;41911;52.362;4.978;2023-05-03T01:33:45;103008.27;;;9.48;34.94
55687;BME280;41911;52.362;4.978;2023-05-03T01:34:30;103011.21;;;9.82;33.66
55687;BME280;41911;52.362;4.978;2023-05-03T01:35:27;103008.52;;;9.74;34.67
55687;BME280;41911;52.362;4.978;2023-05-03T01:36:09;103009.73;;;9.62;34.42
55687;BME280;41911;52.362;4.978;2023-05-03T01:36:43;103009.81;;;9.32;34.74
55687;BME280;41911;52.362;4.978;2023-05-03T01:37:15;103012.09;;;9.40;35.55
55687;BME280;41911;52.362;4.978;2023-05-03T01:37:47;103009.88;;;9.70;35.81
55687;BME280;41911;52.362;4.978;2023-05-03T01:38:20;103010.53;;;9.45;35.11
55687;BME280;41911;52.362;4.978;2023-05-03T01:38:52;103008.77;;;9.57;34.80
55687;BME280;41911;52.362;4.978;2023-05-03T01:39:27;103010.75;;;9.48;34.35
55687;BME280;41911;52.362;4.978;2023-05-03T01:40:02;103008.96;;;9.61;34.21
55687;BME280;41911;52.362;4.978;2023-05-03T01:40:38;103007.21;;;9.53;34.72
55687;BME280;41911;52.362;4.978;2023-05-03T01:41:11;103007.14;;;9.64;34.78
55687;BME280;41911;52.362;4.978;2023-05-03T01:41:44;103003.68;;;9.64;34.68
55687;BME280;41911;52.362;4.978;2023-05-03T01:42:15;103005.19;;;9.87;35.66
55687;BME280;41911;52.362;4.978;2023-05-03T01:42:47;103004.10;;;9.63;35.28
55687;BME280;41911;52.362;4.978;2023-05-03T01:43:20;103004.36;;;9.42;35.31
55687;BME280;41911;52.362;4.978;2023-05-03T01:43:53;103002.80;;;9.72;35.45
55687;BME280;41911;52.362;4.978;2023-05-03T01:44:24;103003.43;;;9.55;35.61
55687;BME280;41911;52.362;4.978;2023-05-03T01:44:57;103002.02;;;9.59;35.57
55687;BME280;41911;52.362;4.978;2023-05-03T01:45:29;103002.00;;;9.48;35.93
55687;BME280;41911;52.362;4.978;2023-05-03T01:46:00;103003.74;;;9.55;35.78
55687;BME280;41911;52.362;4.978;2023-05-03T01:46:31;103003.05;;;9.70;35.57
55687;BME280;41911;52.362;4.978;2023-05-03T01:47:02;103002.96;;;9.67;34.85
55687;BME280;41911;52.362;4.978;2023-05-03T01:47:33;103004.66;;;9.45;34.93
55687;BME280;41911;52.362;4.978;2023-05-03T01:48:08;103002.18;;;9.85;35.06
55687;BME280;41911;52.362;4.978;2023-05-03T01:48:39;103003.84;;;9.57;34.81
55687;BME280;41911;52.362;4.978;2023-05-03T01:49:11;103001.17;;;9.67;34.29
55687;BME280;41911;52.362;4.978;2023-05-03T01:49:42;103000.34;;;9.34;34.71
55687;BME280;41911;52.362;4.978;2023-05-03T01:50:13;103000.60;;;9.19;35.10
55687;BME280;41911;52.362;4.978;2023-05-03T01:50:44;102999.11;;;9.82;35.10
55687;BME280;41911;52.362;4.978;2023-05-03T01:51:15;103001.55;;;9.61;35.19
55687;BME280;41911;52.362;4.978;2023-05-03T01:51:46;102997.97;;;9.74;35.54
55687;BME280;41911;52.362;4.978;2023-05-03T01:52:17;102999.24;;;9.21;34.68
55687;BME280;41911;52.362;4.978;2023-05-03T01:52:48;102999.20;;;9.53;33.88
55687;BME280;41911;52.362;4.978;2023-05-03T01:53:19;102997.26;;;9.57;34.00
55687;BME280;41911;52.362;4.978;2023-05-03T01:53:50;102995.24;;;9.70;34.85
55687;BME280;41911;52.362;4.978;2023-05-03T01:54:21;102997.05;;;9.21;35.16
55687;BME280;41911;52.362;4.978;2023-05-03T01:54:51;102995.98;;;9.41;35.41
55687;BME280;41911;52.362;4.978;2023-05-03T01:55:22;102995.72;;;9.30;35.12
55687;BME280;41911;52.362;4.978;2023-05-03T01:55:53;102992.49;;;8.92;34.88
55687;BME280;41911;52.362;4.978;2023-05-03T01:56:24;102991.07;;;9.02;35.55
55687;BME280;41911;52.362;4.978;2023-05-03T01:56:55;102992.43;;;9.36;35.49
55687;BME280;41911;52.362;4.978;2023-05-03T01:57:26;102992.21;;;9.76;35.30
55687;BME280;41911;52.362;4.978;2023-05-03T01:57:57;102993.24;;;9.08;35.06
55687;BME280;41911;52.362;4.978;2023-05-03T01:58:28;102992.23;;;9.66;35.26
55687;BME280;41911;52.362;4.978;2023-05-03T01:58:59;102992.04;;;9.43;35.63
55687;BME280;41911;52.362;4.978;2023-05-03T01:59:30;102992.92;;;9.53;35.00
55687;BME280;41911;52.362;4.978;2023-05-03T02:00:01;102993.74;;;9.49;35.54
55687;BME280;41911;52.362;4.978;2023-05-03T02:00:32;102992.28;;;9.56;35.32
55687;BME280;41911;52.362;4.978;2023-05-03T02:01:03;102990.88;;;9.98;35.18
55687;BME280;41911;52.362;4.978;2023-05-03T02:01:34;102988.24;;;9.59;35.14
55687;BME280;41911;52.362;4.978;2023-05-03T02:02:05;102988.95;;;9.52;34.25
55687;BME280;41911;52.362;4.978;2023-05-03T02:02:36;102986.45;;;9.64;33.90
55687;BME280;41911;52.362;4.978;2023-05-03T02:03:07;102986.21;;;9.78;34.06
55687;BME280;41911;52.362;4.978;2023-05-03T02:03:38;102983.01;;;9.51;34.55
55687;BME280;41911;52.362;4.978;2023-05-03T02:04:09;102983.37;;;9.03;34.75
55687;BME280;41911;52.362;4.978;2023-05-03T02:04:40;102982.64;;;9.30;34.41
55687;BME280;41911;52.362;4.978;2023-05-03T02:05:11;102980.59;;;9.59;34.50
55687;BME280;41911;52.362;4.978;2023-05-03T02:05:42;102981.06;;;9.28;34.58
55687;BME280;41911;52.362;4.978;2023-05-03T02:06:13;102978.80;;;9.44;34.07
55687;BME280;41911;52.362;4.978;2023-05-03T02:06:43;102976.54;;;9.23;34.11
55687;BME280;41911;52.362;4.978;2023-05-03T02:07:14;102975.41;;;8.89;34.77
55687;BME280;41911;52.362;4.978;2023-05-03T02:07:45;102973.97;;;8.90;35.33
55687;BME280;41911;52.362;4.978;2023-05-03T02:08:16;102973.41;;;9.49;35.09
55687;BME280;41911;52.362;4.978;2023-05-03T02:08:47;102971.07;;;9.50;34.93
55687;BME280;41911;52.362;4.978;2023-05-03T02:09:18;102972.71;;;9.63;34.64
55687;BME280;41911;52.362;4.978;2023-05-03T02:09:49;102970.52;;;9.31;35.25
55687;BME280;41911;52.362;4.978;2023-05-03T02:10:20;102970.29;;;9.23;34.82
55687;BME280;41911;52.362;4.978;2023-05-03T02:10:51;102968.66;;;9.29;34.85
55687;BME280;41911;52.362;4.978;2023-05-03T02:11:21;102969.75;;;9.51;34.57
55687;BME280;41911;52.362;4.978;2023-05-03T02:11:52;102968.40;;;9.46;34.50
55687;BME280;41911;52.362;4.978;2023-05-03T02:12:23;102968.55;;;9.19;33.85
55687;BME280;41911;52.362;4.978;2023-05-03T02:12:54;102963.79;;;9.47;34.88
55687;BME280;41911;52.362;4.978;2023-05-03T02:13:25;102964.90;;;9.13;34.29
55687;BME280;41911;52.362;4.978;2023-05-03T02:13:56;102963.41;;;9.49;34.41
55687;BME280;41911;52.362;4.978;2023-05-03T02:14:27;102963.06;;;9.41;33.95
55687;BME280;41911;52.362;4.978;2023-05-03T02:14:58;102959.19;;;9.48;33.24
55687;BME280;41911;52.362;4.978;2023-05-03T02:15:29;102956.62;;;9.38;34.54
55687;BME280;41911;52.362;4.978;2023-05-03T02:16:00;102956.59;;;9.21;33.70
55687;BME280;41911;52.362;4.978;2023-05-03T02:16:31;102954.84;;;9.26;33.84
55687;BME280;41911;52.362;4.978;2023-05-03T02:17:02;102952.95;;;9.22;34.22
55687;BME280;41911;52.362;4.978;2023-05-03T02:17:33;102950.65;;;8.74;34.64
55687;BME280;41911;52.362;4.978;2023-05-03T02:18:04;102952.22;;;8.76;33.89
55687;BME280;41911;52.362;4.978;2023-05-03T02:18:35;102946.61;;;8.65;34.48
55687;BME280;41911;52.362;4.978;2023-05-03T02:19:05;102946.00;;;8.98;34.21
55687;BME280;41911;52.362;4.978;2023-05-03T02:19:36;102952.08;;;9.14;33.93
55687;BME280;41911;52.362;4.978;2023-05-03T02:20:08;102951.33;;;9.25;33.50
55687;BME280;41911;52.362;4.978;2023-05-03T02:20:39;102950.07;;;9.00;33.60
55687;BME280;41911;52.362;4.978;2023-05-03T02:21:14;102948.82;;;9.20;34.00
55687;BME280;41911;52.362;4.978;2023-05-03T02:21:44;102946.03;;;9.21;33.93
55687;BME280;41911;52.362;4.978;2023-05-03T02:22:15;102948.96;;;9.13;34.38
55687;BME280;41911;52.362;4.978;2023-05-03T02:22:46;102952.57;;;8.88;34.85
55687;BME280;41911;52.362;4.978;2023-05-03T02:23:17;102948.74;;;8.85;34.86
55687;BME280;41911;52.362;4.978;2023-05-03T02:23:48;102950.09;;;9.02;34.82
55687;BME280;41911;52.362;4.978;2023-05-03T02:24:19;102941.65;;;8.99;35.88
55687;BME280;41911;52.362;4.978;2023-05-03T02:24:50;102945.93;;;8.65;34.77
55687;BME280;41911;52.362;4.978;2023-05-03T02:25:21;102945.26;;;8.43;34.14
55687;BME280;41911;52.362;4.978;2023-05-03T02:25:52;102944.76;;;8.91;34.61
55687;BME280;41911;52.362;4.978;2023-05-03T02:26:23;102949.60;;;8.97;34.89
55687;BME280;41911;52.362;4.978;2023-05-03T02:26:54;102946.14;;;8.71;34.60
55687;BME280;41911;52.362;4.978;2023-05-03T02:27:25;102943.18;;;8.96;33.85
55687;BME280;41911;52.362;4.978;2023-05-03T02:27:56;102944.68;;;8.72;33.99
55687;BME280;41911;52.362;4.978;2023-05-03T02:28:27;102944.84;;;8.83;33.90
55687;BME280;41911;52.362;4.978;2023-05-03T02:28:57;102946.98;;;8.83;34.77
55687;BME280;41911;52.362;4.978;2023-05-03T02:29:28;102943.11;;;8.79;34.91
55687;BME280;41911;52.362;4.978;2023-05-03T02:30:00;102943.71;;;8.77;33.91
55687;BME280;41911;52.362;4.978;2023-05-03T02:30:31;102945.22;;;8.94;34.50
55687;BME280;41911;52.362;4.978;2023-05-03T02:31:02;102945.53;;;8.97;35.17
55687;BME280;41911;52.362;4.978;2023-05-03T02:31:33;102945.64;;;8.67;35.49
55687;BME280;41911;52.362;4.978;2023-05-03T02:32:04;102946.76;;;8.83;34.69
55687;BME280;41911;52.362;4.978;2023-05-03T02:32:35;102950.49;;;8.31;34.84
55687;BME280;41911;52.362;4.978;2023-05-03T02:33:06;102950.84;;;9.04;34.32
55687;BME280;41911;52.362;4.978;2023-05-03T02:33:37;102949.89;;;8.72;34.65
55687;BME280;41911;52.362;4.978;2023-05-03T02:34:08;102951.45;;;9.09;34.44
55687;BME280;41911;52.362;4.978;2023-05-03T02:34:39;102955.48;;;8.69;34.39
55687;BME280;41911;52.362;4.978;2023-05-03T02:35:10;102952.11;;;8.77;34.71
55687;BME280;41911;52.362;4.978;2023-05-03T02:35:41;102951.97;;;8.53;34.78
55687;BME280;41911;52.362;4.978;2023-05-03T02:36:12;102955.32;;;8.72;35.05
55687;BME280;41911;52.362;4.978;2023-05-03T02:36:43;102954.27;;;8.21;35.68
55687;BME280;41911;52.362;4.978;2023-05-03T02:37:14;102959.57;;;8.53;35.64
55687;BME280;41911;52.362;4.978;2023-05-03T02:37:45;102958.56;;;8.03;35.41
55687;BME280;41911;52.362;4.978;2023-05-03T02:38:16;102961.47;;;8.52;36.04
55687;BME280;41911;52.362;4.978;2023-05-03T02:38:47;102962.91;;;8.59;35.91
55687;BME280;41911;52.362;4.978;2023-05-03T02:39:18;102964.76;;;8.40;36.17
55687;BME280;41911;52.362;4.978;2023-05-03T02:39:48;102968.93;;;8.74;36.15
55687;BME280;41911;52.362;4.978;2023-05-03T02:40:19;102967.41;;;8.52;35.95
55687;BME280;41911;52.362;4.978;2023-05-03T02:40:50;102967.62;;;8.37;35.80
55687;BME280;41911;52.362;4.978;2023-05-03T02:41:21;102969.29;;;8.52;35.71
55687;BME280;41911;52.362;4.978;2023-05-03T02:41:52;102969.22;;;8.48;34.94
55687;BME280;41911;52.362;4.978;2023-05-03T02:42:23;102970.86;;;8.29;35.47
55687;BME280;41911;52.362;4.978;2023-05-03T02:42:54;102968.97;;;8.43;35.35
55687;BME280;41911;52.362;4.978;2023-05-03T02:43:25;102968.03;;;8.83;34.65
55687;BME280;41911;52.362;4.978;2023-05-03T02:43:56;102966.60;;;8.41;35.48
55687;BME280;41911;52.362;4.978;2023-05-03T02:44:27;102969.56;;;8.34;35.27
55687;BME280;41911;52.362;4.978;2023-05-03T02:44:58;102966.40;;;8.54;35.19
55687;BME280;41911;52.362;4.978;2023-05-03T02:45:28;102968.14;;;8.08;35.72
55687;BME280;41911;52.362;4.978;2023-05-03T02:45:59;102969.96;;;8.75;34.62
55687;BME280;41911;52.362;4.978;2023-05-03T02:46:30;102967.96;;;8.68;34.99
55687;BME280;41911;52.362;4.978;2023-05-03T02:47:01;102974.64;;;8.33;35.57
55687;BME280;41911;52.362;4.978;2023-05-03T02:47:32;102971.49;;;8.52;35.75
55687;BME280;41911;52.362;4.978;2023-05-03T02:48:03;102973.81;;;8.47;35.96
55687;BME280;41911;52.362;4.978;2023-05-03T02:48:34;102975.08;;;8.38;36.57
55687;BME280;41911;52.362;4.978;2023-05-03T02:49:05;102976.48;;;8.50;36.22
55687;BME280;41911;52.362;4.978;2023-05-03T02:49:36;102980.88;;;8.53;35.48
55687;BME280;41911;52.362;4.978;2023-05-03T02:50:07;102984.73;;;8.57;35.81